Time;durP1;ratioP1;P1;durP2;ratioP2;P2;SDS_P1;SDS_P2;PMS_P1;PMS_P2;Temp;Humidity;BMP_temperature;BMP_pressure;BME280_temperature;BME280_humidity;BME280_pressure;Samples;Min_cycle;Max_cycle;Signal;HPM_P1;HPM_P2
2022/08/13 00:00:24;;;;;;;92.47;88.22;;;;;;;31.83;23.14;101485.00;4899977;29;20052;-72
2022/08/13 00:02:51;;;;;;;104.68;99.90;;;;;;;31.80;23.29;101485.72;4899576;29;20028;-72
2022/08/13 00:05:18;;;;;;;92.25;87.90;;;;;;;31.77;23.13;101480.88;4899859;29;20044;-72
2022/08/13 00:07:43;;;;;;;95.22;90.63;;;;;;;31.74;23.18;101484.41;4899130;29;20045;-73
2022/08/13 00:10:20;;;;;;;93.40;89.10;;;;;;;31.69;23.28;101485.50;4899445;29;20092;-72
2022/08/13 00:12:57;;;;;;;90.20;85.72;;;;;;;31.64;23.26;101483.03;4900083;29;20128;-72
2022/08/13 00:15:28;;;;;;;94.38;89.88;;;;;;;31.61;23.37;101490.16;4899819;29;20039;-73
2022/08/13 00:17:57;;;;;;;94.60;90.20;;;;;;;31.58;23.25;101481.72;4899655;29;20033;-74
2022/08/13 00:20:26;;;;;;;97.10;92.70;;;;;;;31.54;23.38;101486.41;4899885;29;20084;-72
2022/08/13 00:22:54;;;;;;;93.45;88.65;;;;;;;31.51;23.71;101487.16;4899605;29;20473;-72
2022/08/13 00:25:20;;;;;;;95.40;91.13;;;;;;;31.47;23.52;101484.28;4898289;29;20043;-72
2022/08/13 00:27:56;;;;;;;89.90;85.82;;;;;;;31.42;23.62;101479.78;4900020;29;20449;-72
2022/08/13 00:30:31;;;;;;;92.85;88.35;;;;;;;31.39;23.53;101488.09;4899489;29;20073;-72
2022/08/13 00:32:59;;;;;;;93.00;88.07;;;;;;;31.34;23.59;101486.38;4898412;29;20028;-73
2022/08/13 00:35:25;;;;;;;89.30;85.13;;;;;;;31.31;23.61;101484.34;4899064;29;20036;-72
2022/08/13 00:37:52;;;;;;;90.15;85.95;;;;;;;31.26;23.65;101490.22;4898022;29;20048;-72
2022/08/13 00:40:18;;;;;;;87.15;82.85;;;;;;;31.23;23.74;101490.94;4898469;29;20052;-72
2022/08/13 00:42:43;;;;;;;90.78;86.65;;;;;;;31.18;23.69;101475.28;4899216;29;20056;-73
2022/08/13 00:45:09;;;;;;;93.60;89.40;;;;;;;31.16;23.60;101488.00;4899066;29;20044;-74
2022/08/13 00:50:20;;;;;;;89.03;84.93;;;;;;;31.08;23.98;101484.25;4899367;29;20126;-72
2022/08/13 00:52:48;;;;;;;92.80;88.55;;;;;;;31.04;23.93;101483.34;4899066;29;20465;-72
2022/08/13 00:55:16;;;;;;;;;;;;;;;31.00;23.71;101486.06;4899408;29;20036;-73
2022/08/13 00:57:44;;;;;;;91.50;87.40;;;;;;;30.96;23.98;101487.97;4898972;29;20371;-73
2022/08/13 01:00:13;;;;;;;;;;;;;;;30.91;24.02;101485.47;4899617;29;20597;-72
2022/08/13 01:02:50;;;;;;;89.43;85.25;;;;;;;30.87;24.27;101486.53;4898516;29;19915;-72
2022/08/13 01:05:16;;;;;;;86.07;82.07;;;;;;;30.82;24.05;101487.66;4898835;29;20473;-73
2022/08/13 01:07:43;;;;;;;91.90;87.53;;;;;;;30.79;24.18;101483.59;4898815;29;20053;-73
2022/08/13 01:10:09;;;;;;;88.20;83.88;;;;;;;30.75;24.34;101488.25;4898646;29;20024;-72
2022/08/13 01:12:37;;;;;;;89.38;85.38;;;;;;;30.72;24.53;101489.00;4899277;29;20035;-73
2022/08/13 01:15:04;;;;;;;86.47;82.40;;;;;;;30.68;24.30;101482.50;4898701;29;20112;-73
2022/08/13 01:17:31;;;;;;;89.03;84.30;;;;;;;30.66;24.43;101486.84;4898701;29;20111;-73
2022/08/13 01:19:57;;;;;;;85.10;81.25;;;;;;;30.62;24.66;101489.53;4898236;29;20488;-72
2022/08/13 01:22:25;;;;;;;88.10;83.53;;;;;;;30.58;24.21;101492.22;4897944;29;20040;-72
2022/08/13 01:24:51;;;;;;;92.03;87.80;;;;;;;30.55;24.70;101483.78;4898865;29;20052;-72
2022/08/13 01:27:23;;;;;;;86.07;81.97;;;;;;;30.52;24.73;101493.69;4899238;29;20374;-72
2022/08/13 01:29:50;;;;;;;86.95;82.85;;;;;;;30.49;24.60;101490.78;4898984;29;20032;-72
2022/08/13 01:32:21;;;;;;;90.43;86.13;;;;;;;30.45;24.62;101490.72;4898425;29;20116;-72
2022/08/13 01:34:48;;;;;;;87.63;82.90;;;;;;;30.40;24.77;101497.38;4897545;29;20119;-72
2022/08/13 01:37:15;;;;;;;88.68;84.43;;;;;;;30.37;24.69;101494.50;4897414;29;20044;-72
2022/08/13 01:39:41;;;;;;;92.15;87.95;;;;;;;30.33;24.55;101499.97;4897354;29;20041;-72
2022/08/13 01:42:20;;;;;;;88.38;84.07;;;;;;;30.31;24.90;101495.94;4898339;29;20036;-73
2022/08/13 01:44:47;;;;;;;86.22;82.13;;;;;;;30.27;24.71;101503.41;4898935;29;20560;-73
2022/08/13 01:52:42;;;;;;;85.13;80.90;;;;;;;30.16;24.80;101491.94;4897670;29;20055;-73
2022/08/13 01:55:07;;;;;;;84.70;80.70;;;;;;;30.12;24.83;101491.84;4898202;29;20064;-73
2022/08/13 01:57:35;;;;;;;81.97;78.28;;;;;;;30.08;24.82;101484.56;4897476;29;20064;-73
2022/08/13 02:00:01;;;;;;;85.50;81.40;;;;;;;30.06;24.91;101484.91;4897206;29;20052;-72
2022/08/13 02:02:30;;;;;;;85.97;81.97;;;;;;;30.01;24.93;101490.75;4897844;29;20273;-72
2022/08/13 02:04:55;;;;;;;81.00;77.30;;;;;;;29.98;24.61;101486.72;4898125;29;20092;-72
2022/08/13 02:07:21;;;;;;;86.55;82.53;;;;;;;29.95;24.88;101481.06;4898115;29;20119;-73
2022/08/13 02:09:46;;;;;;;85.40;81.43;;;;;;;29.92;24.83;101492.91;4898630;29;20376;-72
2022/08/13 02:12:13;;;;;;;85.30;81.13;;;;;;;29.87;24.64;101485.63;4896709;29;20044;-73
2022/08/13 02:14:42;;;;;;;80.90;77.10;;;;;;;29.84;24.97;101486.34;4898943;29;20037;-72
2022/08/13 02:17:24;;;;;;;85.10;81.18;;;;;;;29.81;24.93;101484.28;4898269;29;20455;-73
2022/08/13 02:19:55;;;;;;;84.45;80.10;;;;;;;29.76;25.11;101485.34;4898084;29;20036;-72
2022/08/13 02:22:24;;;;;;;84.28;80.38;;;;;;;29.73;25.19;101483.25;4897808;29;20090;-72
2022/08/13 02:24:52;;;;;;;82.38;78.47;;;;;;;29.70;24.94;101485.94;4897786;29;20032;-72
2022/08/13 02:27:20;;;;;;;82.65;78.53;;;;;;;29.67;25.09;101489.44;4898277;29;20088;-72
2022/08/13 02:29:47;;;;;;;80.55;76.80;;;;;;;29.63;25.38;101480.94;4897891;29;20037;-72
2022/08/13 02:32:12;;;;;;;84.75;80.65;;;;;;;29.60;24.86;101476.09;4883306;29;20426;-73
2022/08/13 02:34:39;;;;;;;83.47;79.47;;;;;;;29.56;25.08;101480.78;4901835;29;20075;-72
2022/08/13 02:37:05;;;;;;;82.22;78.32;;;;;;;29.53;25.28;101482.28;4901517;29;20068;-73
2022/08/13 02:39:31;;;;;;;81.47;77.47;;;;;;;29.49;24.96;101489.72;4901683;29;20398;-73
2022/08/13 02:41:57;;;;;;;80.07;76.40;;;;;;;29.46;25.14;101486.81;4901207;29;20043;-72
2022/08/13 02:44:26;;;;;;;81.75;77.78;;;;;;;29.42;25.21;101481.16;4899883;29;20069;-73
2022/08/13 02:46:51;;;;;;;80.47;76.47;;;;;;;29.40;25.19;101482.69;4901316;29;20041;-73
2022/08/13 02:49:21;;;;;;;83.55;79.65;;;;;;;29.36;25.13;101476.19;4899913;29;20032;-72
2022/08/13 02:51:47;;;;;;;83.28;79.40;;;;;;;29.32;25.41;101476.09;4901281;29;20060;-73
2022/08/13 02:54:17;;;;;;;81.53;77.70;;;;;;;29.29;25.31;101480.41;4901069;29;20036;-73
2022/08/13 02:56:43;;;;;;;81.20;76.90;;;;;;;29.25;25.65;101482.25;4901226;29;20032;-73
2022/08/13 02:59:10;;;;;;;80.50;76.60;;;;;;;29.22;25.71;101482.97;4901001;29;20064;-73
2022/08/13 03:01:39;;;;;;;79.93;76.20;;;;;;;29.20;25.83;101484.47;4899798;29;20071;-72
2022/08/13 03:04:08;;;;;;;79.30;75.70;;;;;;;29.16;25.43;101484.38;4900042;29;20080;-72
2022/08/13 03:06:34;;;;;;;81.95;78.15;;;;;;;29.14;25.63;101483.13;4900042;29;20048;-73
2022/08/13 03:09:01;;;;;;;79.28;75.47;;;;;;;29.09;25.52;101473.03;4900190;29;20469;-72
2022/08/13 03:11:28;;;;;;;79.13;75.50;;;;;;;29.06;25.93;101491.25;4901105;29;20071;-73
2022/08/13 03:13:57;;;;;;;82.50;78.60;;;;;;;29.03;25.48;101482.72;4900872;29;20079;-73
2022/08/13 03:16:25;;;;;;;81.85;77.95;;;;;;;28.99;25.65;101488.19;4900486;29;20401;-73
2022/08/13 03:18:53;;;;;;;80.28;76.15;;;;;;;28.96;25.80;101485.31;4900804;29;20040;-72
2022/08/13 03:21:23;;;;;;;82.22;78.25;;;;;;;28.93;25.91;101486.84;4900393;29;20500;-73
2022/08/13 03:23:51;;;;;;;80.05;76.25;;;;;;;28.89;26.06;101485.91;4900790;29;20137;-72
2022/08/13 03:26:18;;;;;;;82.32;78.53;;;;;;;28.86;25.86;101487.41;4899515;29;20036;-72
2022/08/13 03:28:44;;;;;;;79.65;75.93;;;;;;;28.83;26.24;101482.56;4900820;29;20476;-72
2022/08/13 03:31:09;;;;;;;78.63;75.00;;;;;;;28.81;25.84;101492.41;4900133;29;20028;-73
2022/08/13 03:33:35;;;;;;;77.65;73.75;;;;;;;28.77;26.24;101480.34;4900519;29;20067;-72
2022/08/13 03:36:00;;;;;;;76.43;72.78;;;;;;;28.73;26.26;101479.41;4900212;29;20040;-72
2022/08/13 03:38:26;;;;;;;80.88;77.03;;;;;;;28.70;26.08;101489.25;4900881;29;20088;-72
2022/08/13 03:41:00;;;;;;;78.47;74.68;;;;;;;28.68;25.99;101488.81;4900905;29;20469;-73
2022/08/13 03:43:27;;;;;;;80.50;76.78;;;;;;;28.64;26.12;101485.09;4898734;29;20541;-73
2022/08/13 03:45:54;;;;;;;79.70;76.00;;;;;;;28.60;26.31;101484.19;4900832;29;20033;-73
2022/08/13 03:48:21;;;;;;;80.72;76.57;;;;;;;28.57;26.40;101487.66;4900959;29;20044;-72
2022/08/13 03:50:48;;;;;;;77.00;73.20;;;;;;;28.54;26.18;101491.94;4899660;29;20037;-73
2022/08/13 03:53:16;;;;;;;77.97;74.35;;;;;;;28.51;26.27;101489.06;4900096;29;20479;-73
2022/08/13 03:55:42;;;;;;;77.68;73.68;;;;;;;28.46;26.43;101490.91;4899418;29;20537;-73
2022/08/13 03:58:09;;;;;;;80.20;76.38;;;;;;;28.44;26.32;101490.44;4899612;29;20116;-72
2022/08/13 04:00:38;;;;;;;78.40;74.60;;;;;;;28.41;26.41;101482.75;4899036;29;20046;-73
2022/08/13 04:03:16;;;;;;;77.65;74.03;;;;;;;28.37;26.88;101484.59;4899491;29;20418;-72
2022/08/13 04:05:43;;;;;;;76.90;72.95;;;;;;;28.35;26.82;101475.00;4900016;29;20108;-73
2022/08/13 04:08:08;;;;;;;75.55;71.95;;;;;;;28.31;26.57;101477.66;4899812;29;20032;-73
2022/08/13 04:10:33;;;;;;;78.82;75.03;;;;;;;28.28;26.61;101489.47;4899688;29;20043;-73
2022/08/13 04:12:59;;;;;;;74.88;71.30;;;;;;;28.25;26.93;101481.84;4899876;29;20033;-73
2022/08/13 04:15:25;;;;;;;79.72;75.50;;;;;;;28.21;26.57;101484.47;4899745;29;20057;-73
2022/08/13 04:17:50;;;;;;;76.57;72.78;;;;;;;28.19;26.68;101486.78;4899499;29;20458;-74
2022/08/13 04:20:16;;;;;;;75.07;71.57;;;;;;;28.16;26.65;101484.69;4882858;29;20098;-76
2022/08/13 04:22:41;;;;;;;76.60;73.03;;;;;;;28.13;26.82;101485.38;4899889;29;20036;-73
2022/08/13 04:25:08;;;;;;;75.28;71.38;;;;;;;28.10;26.59;101493.59;4882818;29;20039;-73
2022/08/13 04:27:34;;;;;;;75.05;71.22;;;;;;;28.06;26.90;101487.91;4914547;29;20041;-73
2022/08/13 04:30:00;;;;;;;78.63;74.93;;;;;;;28.03;26.92;101489.41;4899469;29;20028;-73
2022/08/13 04:32:25;;;;;;;73.30;69.70;;;;;;;28.00;26.95;101492.09;4899607;29;20071;-74
2022/08/13 04:34:51;;;;;;;75.07;71.47;;;;;;;27.97;26.70;101489.97;4899149;29;20056;-72
2022/08/13 04:37:17;;;;;;;75.22;71.63;;;;;;;27.94;27.12;101491.47;4899357;29;20489;-72
2022/08/13 04:39:43;;;;;;;76.78;72.85;;;;;;;27.90;26.92;101493.31;4899530;29;20043;-73
2022/08/13 04:42:11;;;;;;;76.07;71.85;;;;;;;27.88;27.18;101495.63;4898330;29;20104;-73
2022/08/13 04:44:37;;;;;;;74.13;70.53;;;;;;;27.85;26.84;101490.75;4899226;29;20063;-73
2022/08/13 04:47:04;;;;;;;72.20;68.70;;;;;;;27.82;27.22;101499.75;4899253;29;20064;-74
2022/08/13 04:49:30;;;;;;;73.53;69.93;;;;;;;27.79;26.92;101495.66;4897983;29;20033;-73
2022/08/13 04:51:56;;;;;;;73.15;69.65;;;;;;;27.75;26.96;101491.97;4899107;29;20145;-73
2022/08/13 04:54:21;;;;;;;74.07;70.38;;;;;;;27.73;27.41;101488.72;4897813;29;20465;-73
2022/08/13 04:56:47;;;;;;;73.70;70.10;;;;;;;27.70;27.01;101483.84;4897103;29;20048;-73
2022/08/13 04:59:12;;;;;;;75.13;71.63;;;;;;;27.67;27.25;101490.09;4898856;29;20139;-73
2022/08/13 05:01:38;;;;;;;74.00;70.50;;;;;;;27.66;27.19;101493.22;4898876;29;20044;-72
2022/08/13 05:04:04;;;;;;;72.07;68.40;;;;;;;27.63;27.48;101498.28;4898950;29;20186;-72
2022/08/13 05:06:29;;;;;;;72.88;68.95;;;;;;;27.61;27.22;101502.53;4898779;29;20033;-72
2022/08/13 05:08:58;;;;;;;72.03;68.57;;;;;;;27.58;27.39;101503.22;4898757;29;20528;-73
2022/08/13 05:11:24;;;;;;;73.07;69.50;;;;;;;27.55;27.49;101499.19;4897675;29;20032;-73
2022/08/13 05:13:49;;;;;;;72.40;68.82;;;;;;;27.53;27.25;101504.25;4898905;29;20048;-74
2022/08/13 05:16:16;;;;;;;73.25;69.30;;;;;;;27.51;27.30;101506.53;4897513;29;20069;-73
2022/08/13 05:18:45;;;;;;;73.88;70.18;;;;;;;27.49;27.38;101496.94;4897636;29;20107;-73
2022/08/13 05:21:12;;;;;;;73.45;69.82;;;;;;;27.47;27.56;101500.06;4897402;29;20036;-74
2022/08/13 05:23:40;;;;;;;74.10;70.50;;;;;;;27.45;27.51;101507.91;4898664;29;20477;-74
2022/08/13 05:26:06;;;;;;;71.87;67.97;;;;;;;27.43;27.90;101504.66;4898634;29;20492;-72
2022/08/13 05:28:32;;;;;;;71.72;68.22;;;;;;;27.40;27.50;101510.91;4897065;29;20678;-72
2022/08/13 05:30:59;;;;;;;72.10;68.47;;;;;;;27.38;27.59;101511.22;4912977;29;20036;-72
2022/08/13 05:33:27;;;;;;;72.93;69.10;;;;;;;27.37;27.76;101511.59;4898989;29;20044;-74
2022/08/13 05:35:57;;;;;;;;;;;;;;;27.36;27.28;101521.03;4898934;29;20103;-73
2022/08/13 05:38:24;;;;;;;73.03;68.93;;;;;;;27.32;27.29;101518.13;4898256;29;19984;-72
2022/08/13 05:41:00;;;;;;;76.37;72.30;;;;;;;27.32;27.34;101515.38;4898481;29;20462;-72
2022/08/13 05:43:28;;;;;;;74.97;71.18;;;;;;;27.31;27.49;101518.47;4899106;29;20028;-73
2022/08/13 05:46:00;;;;;;;74.68;70.45;;;;;;;27.28;27.68;101514.41;4898391;29;20103;-73
2022/08/13 05:48:56;;;;;;;74.78;70.78;;;;;;;27.28;27.79;101510.81;4899014;29;20033;-74
2022/08/13 05:51:28;;;;;;;76.03;72.13;;;;;;;27.25;27.83;101508.72;4898281;29;20432;-73
2022/08/13 05:53:55;;;;;;;74.57;70.55;;;;;;;27.23;27.63;101506.28;4897058;29;20033;-73
2022/08/13 05:56:26;;;;;;;75.03;71.32;;;;;;;27.23;27.75;101516.56;4896815;29;20044;-73
2022/08/13 05:58:52;;;;;;;72.72;69.13;;;;;;;27.21;27.77;101503.03;4898386;29;20051;-73
2022/08/13 06:04:14;;;;;;;74.05;69.63;;;;;;;27.19;27.88;101508.13;4898324;29;20118;-73
2022/08/13 06:06:40;;;;;;;71.70;68.10;;;;;;;27.17;28.18;101499.28;4897735;29;20033;-73
2022/08/13 06:09:07;;;;;;;73.47;69.75;;;;;;;27.16;27.76;101505.97;4902003;29;20033;-72
2022/08/13 06:11:33;;;;;;;72.95;69.25;;;;;;;27.14;28.06;101506.34;4900862;29;20437;-73
2022/08/13 06:13:58;;;;;;;72.97;69.28;;;;;;;27.14;28.17;101508.25;4902194;29;20457;-73
2022/08/13 06:16:28;;;;;;;72.35;68.75;;;;;;;27.14;28.64;101508.25;4884952;29;20043;-73
2022/08/13 06:18:57;;;;;;;73.60;69.72;;;;;;;27.12;28.12;101508.63;4901890;29;20477;-74
2022/08/13 06:21:24;;;;;;;74.25;70.47;;;;;;;27.12;28.30;101510.59;4901547;29;20505;-73
2022/08/13 06:23:51;;;;;;;70.90;67.15;;;;;;;27.10;28.72;101502.59;4901653;29;20466;-73
2022/08/13 06:26:20;;;;;;;73.93;70.20;;;;;;;27.10;28.54;101513.69;4901826;29;20025;-73
2022/08/13 06:28:47;;;;;;;73.50;69.60;;;;;;;27.09;28.80;101506.53;4901191;29;20214;-74
2022/08/13 06:31:16;;;;;;;72.55;68.65;;;;;;;27.09;29.09;101511.25;4900548;29;20037;-73
2022/08/13 06:33:43;;;;;;;72.65;68.80;;;;;;;27.08;28.95;101507.66;4901483;29;20534;-73
2022/08/13 06:36:14;;;;;;;73.57;69.50;;;;;;;27.08;28.98;101510.44;4901471;29;20084;-73
2022/08/13 06:38:48;;;;;;;77.72;73.00;;;;;;;27.08;29.22;101510.44;4901473;29;20036;-74
2022/08/13 06:41:15;;;;;;;72.25;68.03;;;;;;;27.09;28.72;101503.75;4901542;29;20039;-74
2022/08/13 06:43:43;;;;;;;71.97;68.15;;;;;;;27.10;29.19;101502.59;4901295;29;20055;-73
2022/08/13 06:46:11;;;;;;;70.97;66.70;;;;;;;27.10;28.67;101505.38;4901187;29;20521;-74
2022/08/13 06:48:39;;;;;;;74.65;70.32;;;;;;;27.12;29.01;101505.84;4884544;29;20044;-73
2022/08/13 06:51:06;;;;;;;69.50;65.82;;;;;;;27.13;28.91;101504.69;4901244;29;20062;-72
2022/08/13 06:53:37;;;;;;;68.75;65.07;;;;;;;27.14;29.17;101511.88;4915514;29;20050;-73
2022/08/13 06:56:07;;;;;;;69.95;66.15;;;;;;;27.17;29.06;101507.63;4901440;29;20039;-73
2022/08/13 06:58:35;;;;;;;72.40;68.57;;;;;;;27.19;29.53;101505.34;4901071;29;20104;-72
2022/08/13 07:01:01;;;;;;;;;;;;;;;27.20;29.36;101504.19;4901566;29;20123;-73
2022/08/13 07:03:28;;;;;;;68.22;64.72;;;;;;;27.22;29.44;101501.09;4900848;29;19997;-72
2022/08/13 07:05:56;;;;;;;69.53;65.80;;;;;;;27.23;29.42;101506.28;4901198;29;20028;-72
2022/08/13 07:08:26;;;;;;;69.47;66.03;;;;;;;27.24;29.14;101512.63;4901345;29;20040;-72
2022/08/13 07:13:39;;;;;;;69.68;66.13;;;;;;;27.28;29.51;101511.63;4901357;29;20043;-72
2022/08/13 07:16:07;;;;;;;69.13;65.28;;;;;;;27.30;29.62;101512.09;4900242;29;20044;-72
2022/08/13 07:18:32;;;;;;;70.40;66.47;;;;;;;27.34;29.58;101517.78;4899629;29;20397;-73
2022/08/13 07:20:58;;;;;;;67.97;64.47;;;;;;;27.36;29.27;101521.84;4901056;29;20040;-72
2022/08/13 07:23:24;;;;;;;65.95;62.42;;;;;;;27.39;29.33;101517.56;4899569;29;20560;-72
2022/08/13 07:25:50;;;;;;;71.68;67.68;;;;;;;27.43;29.35;101517.72;4899480;29;20035;-73
2022/08/13 07:28:18;;;;;;;71.38;67.65;;;;;;;27.46;29.31;101517.84;4884205;29;20111;-73
2022/08/13 07:30:46;;;;;;;75.45;70.30;;;;;;;27.48;29.62;101521.09;4900444;29;20073;-73
2022/08/13 07:33:13;;;;;;;68.60;64.72;;;;;;;27.51;29.44;101517.66;4900254;29;20045;-72
2022/08/13 07:35:38;;;;;;;70.25;66.55;;;;;;;27.54;29.34;101528.09;4900465;29;20043;-71
2022/08/13 07:38:04;;;;;;;69.78;66.30;;;;;;;27.55;29.53;101521.38;4899642;29;20032;-72
2022/08/13 07:40:31;;;;;;;68.80;64.95;;;;;;;27.58;29.92;101522.66;4899570;29;20041;-73
2022/08/13 07:42:58;;;;;;;69.53;65.80;;;;;;;27.60;29.78;101526.72;4899208;29;20457;-73
2022/08/13 07:45:24;;;;;;;71.82;68.15;;;;;;;27.63;29.69;101522.44;4899167;29;20064;-72
2022/08/13 07:47:52;;;;;;;71.60;67.80;;;;;;;27.67;29.65;101526.19;4900251;29;20103;-73
2022/08/13 07:50:17;;;;;;;69.57;66.00;;;;;;;27.70;30.11;101525.50;4900149;29;20029;-73
2022/08/13 07:52:43;;;;;;;75.75;70.80;;;;;;;27.74;30.03;101528.38;4900942;29;20032;-72
2022/08/13 07:55:08;;;;;;;71.30;67.80;;;;;;;27.78;29.99;101527.38;4899020;29;20504;-74
2022/08/13 07:57:35;;;;;;;71.93;68.32;;;;;;;27.81;30.37;101521.16;4900073;29;20048;-75
2022/08/13 08:00:03;;;;;;;74.55;70.47;;;;;;;27.86;29.97;101528.47;4900303;29;20397;-73
2022/08/13 08:02:32;;;;;;;72.65;68.97;;;;;;;27.91;30.05;101519.13;4900001;29;20480;-73
2022/08/13 08:04:58;;;;;;;74.90;70.97;;;;;;;27.95;29.80;101525.63;4898953;29;20045;-73
2022/08/13 08:07:25;;;;;;;76.70;72.68;;;;;;;27.99;29.98;101523.78;4900373;29;20473;-73
2022/08/13 08:09:53;;;;;;;74.70;70.57;;;;;;;28.03;29.98;101527.50;4898808;29;20036;-73
2022/08/13 08:12:35;;;;;;;70.32;66.75;;;;;;;28.08;30.30;101530.06;4899819;29;20025;-73
2022/08/13 08:15:04;;;;;;;70.75;66.90;;;;;;;28.15;30.41;101524.75;4900042;29;20123;-74
2022/08/13 08:17:31;;;;;;;74.55;70.95;;;;;;;28.21;30.14;101528.13;4900322;29;20032;-74
2022/08/13 08:19:57;;;;;;;74.18;70.43;;;;;;;28.27;30.45;101527.56;4899722;29;20041;-73
2022/08/13 08:22:23;;;;;;;71.90;68.40;;;;;;;28.33;30.27;101519.81;4898481;29;20040;-72
2022/08/13 08:24:50;;;;;;;72.32;68.93;;;;;;;28.41;30.30;101529.19;4899539;29;20164;-72
2022/08/13 08:27:16;;;;;;;70.72;67.22;;;;;;;28.47;30.12;101522.28;4899610;29;20037;-73
2022/08/13 08:29:44;;;;;;;75.32;71.78;;;;;;;28.54;30.22;101528.06;4899358;29;20115;-72
2022/08/13 08:32:11;;;;;;;74.85;71.18;;;;;;;28.63;30.04;101527.97;4899600;29;20044;-73
2022/08/13 08:34:42;;;;;;;73.68;70.13;;;;;;;28.69;30.11;101526.56;4898752;29;20354;-73
2022/08/13 08:42:35;;;;;;;75.72;72.07;;;;;;;28.77;29.68;101520.06;4898692;29;20032;-72
2022/08/13 08:42:43;;;;;;;75.32;71.22;;;;;;;28.94;30.17;101532.13;4899799;29;20055;-74
2022/08/13 08:45:13;;;;;;;76.13;72.18;;;;;;;29.01;29.79;101527.59;4898616;29;20036;-73
2022/08/13 08:47:40;;;;;;;77.80;73.88;;;;;;;29.10;29.98;101531.09;4899571;29;20032;-75
2022/08/13 08:50:07;;;;;;;80.53;76.80;;;;;;;29.19;29.59;101527.38;4899073;29;20036;-74
2022/08/13 08:55:18;;;;;;;83.65;78.97;;;;;;;29.36;29.50;101529.06;4899665;29;20548;-74
2022/08/13 08:57:46;;;;;;;79.10;75.40;;;;;;;29.46;28.95;101531.34;4882036;29;20374;-74
2022/08/13 09:00:15;;;;;;;;;;;;;;;29.54;28.83;101533.19;4897883;29;20490;-74
2022/08/13 09:02:42;;;;;;;83.43;79.53;;;;;;;29.62;28.63;101526.66;4897951;29;19971;-74
2022/08/13 09:05:13;;;;;;;79.32;75.63;;;;;;;29.72;28.74;101525.38;4898776;29;20047;-74
2022/08/13 09:07:41;;;;;;;78.63;74.93;;;;;;;29.81;28.70;101514.06;4898969;29;20484;-74
2022/08/13 09:10:09;;;;;;;82.28;78.38;;;;;;;29.89;28.40;101524.28;4898522;29;20393;-74
2022/08/13 09:12:42;;;;;;;80.05;76.32;;;;;;;29.99;28.15;101526.53;4899347;29;20045;-74
2022/08/13 09:15:08;;;;;;;82.32;78.43;;;;;;;30.09;28.22;101525.19;4897706;29;20032;-73
2022/08/13 09:17:36;;;;;;;87.38;83.40;;;;;;;30.18;28.09;101512.69;4897419;29;20028;-74
2022/08/13 09:20:03;;;;;;;83.05;77.72;;;;;;;30.27;28.11;101515.38;4898545;29;20119;-74
2022/08/13 09:22:29;;;;;;;83.55;79.75;;;;;;;30.36;27.80;101507.63;4898577;29;20075;-74
2022/08/13 09:24:59;;;;;;;86.95;82.85;;;;;;;30.47;27.61;101512.69;4898968;29;20080;-74
2022/08/13 09:27:27;;;;;;;84.28;80.00;;;;;;;30.55;27.71;101506.09;4898526;29;20036;-73
2022/08/13 09:29:54;;;;;;;85.28;81.22;;;;;;;30.64;27.39;101509.50;4898671;29;20056;-73
2022/08/13 09:32:21;;;;;;;83.65;78.70;;;;;;;30.74;27.26;101508.13;4898563;29;20044;-73
2022/08/13 09:34:46;;;;;;;87.97;83.82;;;;;;;30.83;27.16;101506.81;4897677;29;20048;-73
2022/08/13 09:37:13;;;;;;;84.15;79.93;;;;;;;30.93;26.87;101501.84;4898483;29;20040;-73
2022/08/13 09:39:53;;;;;;;87.40;83.10;;;;;;;31.04;26.66;101503.69;4898460;29;20135;-73
2022/08/13 09:42:24;;;;;;;88.07;83.13;;;;;;;31.14;26.70;101505.09;4898024;29;20088;-72
2022/08/13 09:45:00;;;;;;;87.45;83.45;;;;;;;31.23;26.86;101516.06;4897487;29;20119;-73
2022/08/13 09:47:25;;;;;;;87.78;83.65;;;;;;;31.31;26.52;101517.81;4898430;29;20040;-71
2022/08/13 09:49:52;;;;;;;91.38;86.90;;;;;;;31.40;26.26;101510.09;4898193;29;20032;-72
2022/08/13 09:52:20;;;;;;;89.82;85.70;;;;;;;31.47;26.21;101504.66;4896760;29;20115;-73
2022/08/13 09:54:47;;;;;;;92.57;88.43;;;;;;;31.56;26.19;101500.81;4897278;29;20377;-74
2022/08/13 09:57:12;;;;;;;95.20;90.65;;;;;;;31.64;26.06;101499.78;4898608;29;20445;-74
2022/08/13 09:59:38;;;;;;;93.93;89.53;;;;;;;31.71;25.87;101499.94;4897802;29;20116;-75
2022/08/13 10:02:09;;;;;;;94.50;89.95;;;;;;;31.80;25.45;101496.88;4897995;29;20075;-74
2022/08/13 10:04:37;;;;;;;97.93;93.57;;;;;;;31.86;25.64;101493.44;4898738;29;20081;-74
2022/08/13 10:07:05;;;;;;;95.25;90.75;;;;;;;31.92;25.74;101489.13;4896928;29;20058;-73
2022/08/13 10:09:30;;;;;;;;;;;;;;;32.01;26.07;101486.16;4897457;29;20089;-73
2022/08/13 10:11:58;;;;;;;93.05;88.55;;;;;;;32.07;25.86;101486.66;4898049;29;20313;-73
2022/08/13 10:14:23;;;;;;;92.82;88.72;;;;;;;32.14;25.57;101483.97;4896972;29;20085;-73
2022/08/13 10:16:49;;;;;;;91.15;87.10;;;;;;;32.20;25.50;101476.88;4897317;29;20029;-69
2022/08/13 10:19:14;;;;;;;95.18;90.82;;;;;;;32.27;25.19;101482.59;4896944;29;20185;-70
2022/08/13 10:21:39;;;;;;;96.85;92.50;;;;;;;32.35;24.87;101480.72;4897870;29;20041;-71
2022/08/13 10:24:05;;;;;;;97.30;92.80;;;;;;;32.41;25.15;101472.81;4898298;29;20455;-71
2022/08/13 10:26:31;;;;;;;96.72;92.22;;;;;;;32.46;24.90;101464.16;4898820;29;20029;-71
2022/08/13 10:28:56;;;;;;;94.13;89.97;;;;;;;32.52;24.72;101473.84;4897045;29;20123;-71
2022/08/13 10:31:27;;;;;;;99.10;94.53;;;;;;;32.57;24.95;101473.53;4898240;29;20039;-70
2022/08/13 10:33:59;;;;;;;98.47;93.68;;;;;;;32.62;24.56;101473.19;4897956;29;20496;-71
2022/08/13 10:36:26;;;;;;;99.13;94.65;;;;;;;32.68;24.51;101477.28;4897861;29;20112;-75
2022/08/13 10:38:51;;;;;;;103.10;98.60;;;;;;;32.73;24.64;101468.56;4896526;29;20074;-74
2022/08/13 10:41:17;;;;;;;98.13;93.75;;;;;;;32.79;24.13;101473.84;4897704;29;20096;-73
2022/08/13 10:43:43;;;;;;;99.30;94.80;;;;;;;32.84;24.01;101470.72;4897965;29;20033;-74
2022/08/13 10:46:15;;;;;;;98.72;94.22;;;;;;;32.88;24.11;101471.56;4897795;29;20033;-73
2022/08/13 10:48:44;;;;;;;103.45;98.78;;;;;;;32.93;23.98;101469.25;4898048;29;20037;-74
2022/08/13 10:51:13;;;;;;;100.40;96.00;;;;;;;32.97;23.87;101463.72;4897484;29;20067;-75
2022/08/13 10:56:37;;;;;;;100.20;95.57;;;;;;;33.06;23.74;101469.03;4909950;29;20049;-73
2022/08/13 10:59:04;;;;;;;101.15;96.75;;;;;;;33.12;22.91;101467.53;4900862;29;20151;-72
2022/08/13 11:01:31;;;;;;;103.80;99.13;;;;;;;33.15;22.99;101467.56;4899637;29;20032;-73
2022/08/13 11:04:01;;;;;;;102.25;97.20;;;;;;;33.19;23.22;101459.25;4901059;29;20043;-74
2022/08/13 11:06:27;;;;;;;101.95;97.55;;;;;;;33.21;23.76;101461.63;4900722;29;20029;-72
2022/08/13 11:08:54;;;;;;;104.80;100.20;;;;;;;33.23;23.72;101462.06;4899556;29;20036;-75
2022/08/13 11:11:21;;;;;;;105.97;101.38;;;;;;;33.27;23.54;101457.34;4900659;29;20040;-73
2022/08/13 11:13:46;;;;;;;102.28;97.68;;;;;;;33.30;23.17;101459.38;4900945;29;20116;-74
2022/08/13 11:18:58;;;;;;;104.18;99.60;;;;;;;33.38;22.47;101456.25;4900484;29;20124;-73
2022/08/13 11:21:25;;;;;;;101.68;97.28;;;;;;;33.40;22.88;101451.09;4899111;29;20425;-73
2022/08/13 11:23:52;;;;;;;101.90;96.90;;;;;;;33.43;22.41;101448.72;4900602;29;20072;-72
2022/08/13 11:26:18;;;;;;;101.90;97.35;;;;;;;33.44;22.93;101431.53;4899495;29;20525;-73
2022/08/13 11:28:43;;;;;;;102.97;98.47;;;;;;;33.47;23.11;101429.97;4883603;29;20040;-74
2022/08/13 11:31:08;;;;;;;101.32;95.82;;;;;;;33.50;23.10;101432.00;4900983;29;20056;-73
2022/08/13 11:33:34;;;;;;;102.68;97.97;;;;;;;33.52;22.95;101438.03;4900060;29;20032;-74
2022/08/13 11:35:59;;;;;;;101.50;96.90;;;;;;;33.55;22.70;101440.06;4900362;29;20080;-73